Skip Navigation Links Skip Navigation Links

Current Weather

Fairford RAFB, Fairford, United Kingdom

For information only: do not use for flight planning or navigation.
Latest weather
Observation time Tuesday, September 28, 2021 11:56 AM BST
Local time Tuesday, September 28, 2021 12:14 PM BST
Flight conditions Visual Meteorological Conditions
Winds
Wind direction South-Southwest (210°)
Wind speed 17 mph
Visibility 6.2 mi.
Sky condition
Ceiling unlimited
Sky clear
Temperature 62°F
Dewpoint 53°F
Altimeter 29.93 in.Hg
Derived measurements
Relative humidity 72%
Density altitude 382 ft.
Sea-level pressure 29.94 in.Hg
Remarks
Fully automated report.
System requires maintenance.
Automated weather observing station with precipitation discriminator.
METAR EGVA 281056Z AUTO 21015KT 9999 CLR 17/12 A2993 RMK AO2 SLP138 T01670116 $

Settings

Location code

InnerDrive.Weather 4.0.6770.0 Release CLR 4.0.30319.42000
Copyright ©2018 Inner Drive Technology. All rights reserved. Portions Copyright ©1986-2018 David Braverman.

Find weather

Site navigation


Skip Navigation Links

Place info

Page info

PayPal - The safer, easier way to pay online!

Return home.

Copyright ©2021 Inner Drive Technology. Purveyors of fine, hand-crafted computer software. Page printed 2021-09-28T11:14:44 UTC.